createdAt,value
2017-03-29T00:00:32.273Z,962.67
2017-03-29T00:01:32.390Z,962.66
2017-03-29T00:02:32.901Z,962.69
2017-03-29T00:03:33.388Z,962.66
2017-03-29T00:04:32.620Z,962.68
2017-03-29T00:05:32.771Z,962.65
2017-03-29T00:06:33.210Z,962.64
2017-03-29T00:07:31.901Z,962.67
2017-03-29T00:08:32.508Z,962.70
2017-03-29T00:09:28.292Z,962.70
2017-03-29T00:10:33.388Z,962.71
2017-03-29T00:11:32.390Z,962.72
2017-03-29T00:12:33.387Z,962.72
2017-03-29T00:13:32.161Z,962.67
2017-03-29T00:14:27.912Z,962.63
2017-03-29T00:15:32.422Z,962.70
2017-03-29T00:16:32.349Z,962.70
2017-03-29T00:17:27.306Z,962.72
2017-03-29T00:18:32.884Z,962.75
2017-03-29T00:19:32.316Z,962.70
2017-03-29T00:20:31.974Z,962.69
2017-03-29T00:21:33.481Z,962.76
2017-03-29T00:22:33.449Z,962.78
2017-03-29T00:23:33.450Z,962.75
2017-03-29T00:24:32.512Z,962.75
2017-03-29T00:25:32.455Z,962.79
2017-03-29T00:26:33.012Z,962.78
2017-03-29T00:27:28.493Z,962.75
2017-03-29T00:28:37.425Z,962.78
2017-03-29T00:29:28.367Z,962.73
2017-03-29T00:30:29.610Z,962.71
2017-03-29T00:31:32.790Z,962.75
2017-03-29T00:32:38.030Z,962.80
2017-03-29T00:33:32.951Z,962.74
2017-03-29T00:34:42.735Z,962.77
2017-03-29T00:35:33.410Z,962.75
2017-03-29T00:36:32.465Z,962.74
2017-03-29T00:37:32.677Z,962.76
2017-03-29T00:38:32.702Z,962.78
2017-03-29T00:39:32.852Z,962.76
2017-03-29T00:40:48.221Z,962.77
2017-03-29T00:41:43.178Z,962.73
2017-03-29T00:42:32.253Z,962.76
2017-03-29T00:43:33.423Z,962.75
2017-03-29T00:44:32.457Z,962.73
2017-03-29T00:45:32.564Z,962.76
2017-03-29T00:46:32.711Z,962.77
2017-03-29T00:47:32.653Z,962.81
2017-03-29T00:48:34.128Z,962.86
2017-03-29T00:49:42.390Z,962.79
2017-03-29T00:50:33.116Z,962.81
2017-03-29T00:51:32.476Z,962.80
2017-03-29T00:52:33.526Z,962.82
2017-03-29T00:53:32.499Z,962.81
2017-03-29T00:54:32.479Z,962.80
2017-03-29T00:55:32.254Z,962.75
2017-03-29T00:56:37.950Z,962.79
2017-03-29T00:57:29.257Z,962.78
2017-03-29T00:58:27.553Z,962.75
2017-03-29T00:59:28.480Z,962.75
2017-03-29T01:00:43.136Z,962.75
2017-03-29T01:01:33.134Z,962.77
2017-03-29T01:02:32.127Z,962.74
2017-03-29T01:03:37.959Z,962.79
2017-03-29T01:04:33.133Z,962.73
2017-03-29T01:05:32.488Z,962.78
2017-03-29T01:06:32.490Z,962.78
2017-03-29T01:07:32.486Z,962.81
2017-03-29T01:08:32.494Z,962.80
2017-03-29T01:09:32.140Z,962.79
2017-03-29T01:10:32.689Z,962.80
2017-03-29T01:11:33.137Z,962.79
2017-03-29T01:12:32.260Z,962.78
2017-03-29T01:13:31.993Z,962.86
2017-03-29T01:14:28.505Z,962.82
2017-03-29T01:15:32.140Z,962.82
2017-03-29T01:16:33.142Z,962.82
2017-03-29T01:17:33.200Z,962.81
2017-03-29T01:18:32.981Z,962.80
2017-03-29T01:19:32.507Z,962.79
2017-03-29T01:20:32.510Z,962.81
2017-03-29T01:21:32.947Z,962.81
2017-03-29T01:22:33.069Z,962.81
2017-03-29T01:23:33.877Z,962.79
2017-03-29T01:24:33.201Z,962.79
2017-03-29T01:25:27.508Z,962.82
2017-03-29T01:26:27.214Z,962.79
2017-03-29T01:27:32.270Z,962.79
2017-03-29T01:28:32.350Z,962.81
2017-03-29T01:29:28.903Z,962.79
2017-03-29T01:30:33.231Z,962.75
2017-03-29T01:31:32.231Z,962.80
2017-03-29T01:32:32.111Z,962.78
2017-03-29T01:33:33.247Z,962.79
2017-03-29T01:34:29.500Z,962.77
2017-03-29T01:35:32.508Z,962.83
2017-03-29T01:36:27.639Z,962.80
2017-03-29T01:37:32.149Z,962.80
2017-03-29T01:38:32.252Z,962.80
2017-03-29T01:39:32.151Z,962.84
2017-03-29T01:40:32.871Z,962.80
2017-03-29T01:41:32.970Z,962.85
2017-03-29T01:42:33.084Z,962.85
2017-03-29T01:43:33.193Z,962.87
2017-03-29T01:44:23.526Z,962.88
2017-03-29T01:45:32.528Z,962.89
2017-03-29T01:46:32.528Z,962.89
2017-03-29T01:47:27.257Z,962.84
2017-03-29T01:48:32.529Z,962.82
2017-03-29T01:49:33.079Z,962.89
2017-03-29T01:50:33.272Z,962.88
2017-03-29T01:51:32.181Z,962.89
2017-03-29T01:52:32.271Z,962.90
2017-03-29T01:53:32.272Z,962.90
2017-03-29T01:54:32.271Z,962.89
2017-03-29T01:55:37.399Z,962.92
2017-03-29T01:56:32.162Z,962.90
2017-03-29T01:57:32.203Z,962.87
2017-03-29T01:58:32.271Z,962.88
2017-03-29T01:59:28.950Z,962.82
2017-03-29T02:00:33.288Z,962.88
2017-03-29T02:01:32.568Z,962.88
2017-03-29T02:02:32.587Z,962.90
2017-03-29T02:03:32.419Z,962.86
2017-03-29T02:04:32.224Z,962.83
2017-03-29T02:05:32.156Z,962.87
2017-03-29T02:06:33.295Z,962.87
2017-03-29T02:07:33.762Z,962.85
2017-03-29T02:08:32.876Z,962.91
2017-03-29T02:09:29.298Z,962.89
2017-03-29T02:10:32.431Z,962.87
2017-03-29T02:11:38.429Z,962.83
2017-03-29T02:12:38.086Z,962.83
2017-03-29T02:13:56.713Z,962.80
2017-03-29T02:14:32.667Z,962.84
2017-03-29T02:15:40.940Z,962.84
2017-03-29T02:17:48.335Z,962.85
2017-03-29T02:18:37.446Z,962.86
2017-03-29T02:19:42.111Z,962.84
2017-03-29T02:20:33.111Z,962.93
2017-03-29T02:21:27.778Z,962.98
2017-03-29T02:22:33.336Z,962.96
2017-03-29T02:23:33.023Z,962.98
2017-03-29T02:24:33.317Z,962.96
2017-03-29T02:25:33.337Z,962.98
2017-03-29T02:26:32.195Z,962.95
2017-03-29T02:27:32.608Z,962.99
2017-03-29T02:28:32.432Z,962.97
2017-03-29T02:29:29.289Z,962.95
2017-03-29T02:30:32.312Z,962.94
2017-03-29T02:31:32.591Z,962.96
2017-03-29T02:32:40.980Z,962.98
2017-03-29T02:33:27.771Z,963.01
2017-03-29T02:34:32.629Z,963.00
2017-03-29T02:35:32.457Z,962.99
2017-03-29T02:36:32.239Z,962.97
2017-03-29T02:37:33.123Z,962.95
2017-03-29T02:38:32.630Z,962.90
2017-03-29T02:39:32.767Z,962.92
2017-03-29T02:40:32.458Z,962.96
2017-03-29T02:41:32.701Z,962.92
2017-03-29T02:42:33.153Z,962.97
2017-03-29T02:43:32.721Z,962.96
2017-03-29T02:44:30.341Z,963.02
2017-03-29T02:45:27.340Z,963.01
2017-03-29T02:46:33.192Z,963.02
2017-03-29T02:47:32.342Z,963.02
2017-03-29T02:48:32.130Z,962.99
2017-03-29T02:49:33.151Z,963.01
2017-03-29T02:50:32.001Z,963.05
2017-03-29T02:51:33.343Z,963.03
2017-03-29T02:52:32.640Z,963.05
2017-03-29T02:53:32.439Z,963.06
2017-03-29T02:54:33.338Z,963.06
2017-03-29T02:55:27.338Z,963.10
2017-03-29T02:56:32.343Z,963.11
2017-03-29T02:57:32.235Z,963.06
2017-03-29T02:58:31.830Z,963.08
2017-03-29T02:59:29.352Z,963.08
2017-03-29T03:00:32.780Z,963.15
2017-03-29T03:01:32.650Z,963.14
2017-03-29T03:02:32.652Z,963.19
2017-03-29T03:03:33.195Z,963.12
2017-03-29T03:04:26.999Z,963.16
2017-03-29T03:05:32.800Z,963.14
2017-03-29T03:06:27.700Z,963.15
2017-03-29T03:07:32.667Z,963.15
2017-03-29T03:08:32.668Z,963.15
2017-03-29T03:09:25.359Z,963.16
2017-03-29T03:10:27.361Z,963.11
2017-03-29T03:11:32.669Z,963.12
2017-03-29T03:12:32.669Z,963.12
2017-03-29T03:13:32.670Z,963.09
2017-03-29T03:14:19.658Z,963.12
2017-03-29T03:15:32.371Z,963.13
2017-03-29T03:17:32.372Z,963.11
2017-03-29T03:18:32.481Z,963.11
2017-03-29T03:19:32.264Z,963.10
2017-03-29T03:20:32.277Z,963.12
2017-03-29T03:21:32.312Z,963.14
2017-03-29T03:22:32.150Z,963.11
2017-03-29T03:23:33.141Z,963.16
2017-03-29T03:24:27.371Z,963.20
2017-03-29T03:25:28.115Z,963.22
2017-03-29T03:26:32.688Z,963.20
2017-03-29T03:27:33.371Z,963.17
2017-03-29T03:28:32.173Z,963.15
2017-03-29T03:29:29.779Z,963.14
2017-03-29T03:30:32.681Z,963.18
2017-03-29T03:31:32.269Z,963.16
2017-03-29T03:32:43.161Z,963.14
2017-03-29T03:33:33.397Z,963.13
2017-03-29T03:34:32.616Z,963.14
2017-03-29T03:35:32.673Z,963.13
2017-03-29T03:36:32.825Z,963.11
2017-03-29T03:37:32.708Z,963.10
2017-03-29T03:38:33.514Z,963.15
2017-03-29T03:39:33.163Z,963.15
2017-03-29T03:40:33.275Z,963.18
2017-03-29T03:41:32.436Z,963.14
2017-03-29T03:42:32.541Z,963.20
2017-03-29T03:43:32.639Z,963.20
2017-03-29T03:44:30.026Z,963.23
2017-03-29T03:45:32.841Z,963.28
2017-03-29T03:46:33.418Z,963.27
2017-03-29T03:47:32.942Z,963.35
2017-03-29T03:48:32.710Z,963.29
2017-03-29T03:49:28.081Z,963.35
2017-03-29T03:50:33.263Z,963.37
2017-03-29T03:51:32.421Z,963.37
2017-03-29T03:52:32.717Z,963.38
2017-03-29T03:53:32.721Z,963.35
2017-03-29T03:54:32.718Z,963.33
2017-03-29T03:55:32.369Z,963.36
2017-03-29T03:56:32.430Z,963.36
2017-03-29T03:57:32.851Z,963.41
2017-03-29T03:58:33.150Z,963.39
2017-03-29T03:59:30.188Z,963.43
2017-03-29T04:00:32.070Z,963.48
2017-03-29T04:01:33.452Z,963.46
2017-03-29T04:02:32.414Z,963.53
2017-03-29T04:03:27.517Z,963.45
2017-03-29T04:04:32.111Z,963.47
2017-03-29T04:05:32.861Z,963.41
2017-03-29T04:06:32.860Z,963.44
2017-03-29T04:07:33.448Z,963.43
2017-03-29T04:08:33.029Z,963.44
2017-03-29T04:09:30.084Z,963.41
2017-03-29T04:10:28.820Z,963.43
2017-03-29T04:11:33.392Z,963.46
2017-03-29T04:12:27.359Z,963.42
2017-03-29T04:13:32.451Z,963.44
2017-03-29T04:14:30.458Z,963.45
2017-03-29T04:15:32.458Z,963.44
2017-03-29T04:16:32.331Z,963.45
2017-03-29T04:17:32.289Z,963.45
2017-03-29T04:18:27.431Z,963.44
2017-03-29T04:19:33.480Z,963.45
2017-03-29T04:20:32.598Z,963.48
2017-03-29T04:21:38.117Z,963.46
2017-03-29T04:22:24.478Z,963.53
2017-03-29T04:23:27.879Z,963.52
2017-03-29T04:24:32.780Z,963.54
2017-03-29T04:26:33.221Z,963.58
2017-03-29T04:27:32.141Z,963.53
2017-03-29T04:28:33.512Z,963.50
2017-03-29T04:29:29.771Z,963.50
2017-03-29T04:30:33.036Z,963.54
2017-03-29T04:31:32.772Z,963.56
2017-03-29T04:32:32.612Z,963.59
2017-03-29T04:33:32.529Z,963.60
2017-03-29T04:34:32.785Z,963.55
2017-03-29T04:35:32.599Z,963.57
2017-03-29T04:36:32.668Z,963.59
2017-03-29T04:37:33.181Z,963.63
2017-03-29T04:38:32.035Z,963.59
2017-03-29T04:39:32.904Z,963.65
2017-03-29T04:40:33.203Z,963.68
2017-03-29T04:41:32.002Z,963.64
2017-03-29T04:42:32.707Z,963.64
2017-03-29T04:43:32.551Z,963.68
2017-03-29T04:44:30.262Z,963.72
2017-03-29T04:45:32.488Z,963.71
2017-03-29T04:46:32.480Z,963.77
2017-03-29T04:47:32.451Z,963.76
2017-03-29T04:48:32.548Z,963.78
2017-03-29T04:49:32.370Z,963.76
2017-03-29T04:50:32.301Z,963.76
2017-03-29T04:51:32.430Z,963.79
2017-03-29T04:52:27.499Z,963.77
2017-03-29T04:53:32.533Z,963.80
2017-03-29T04:54:32.551Z,963.85
2017-03-29T04:55:32.597Z,963.83
2017-03-29T04:56:33.112Z,963.86
2017-03-29T04:57:32.717Z,963.85
2017-03-29T04:58:33.593Z,963.84
2017-03-29T04:59:30.592Z,963.91
2017-03-29T05:00:32.589Z,963.90
2017-03-29T05:01:32.830Z,963.91
2017-03-29T05:02:27.771Z,963.85
2017-03-29T05:03:33.053Z,963.87
2017-03-29T05:04:33.772Z,963.91
2017-03-29T05:05:27.233Z,963.87
2017-03-29T05:06:33.234Z,963.86
2017-03-29T05:07:32.732Z,963.89
2017-03-29T05:09:30.389Z,963.88
2017-03-29T05:10:38.231Z,963.90
2017-03-29T05:11:27.340Z,963.94
2017-03-29T05:12:27.233Z,963.99
2017-03-29T05:13:32.911Z,963.99
2017-03-29T05:14:30.993Z,963.97
2017-03-29T05:15:32.766Z,964.03
2017-03-29T05:16:32.641Z,964.01
2017-03-29T05:17:32.781Z,963.97
2017-03-29T05:18:32.667Z,964.00
2017-03-29T05:19:32.621Z,964.03
2017-03-29T05:20:32.264Z,964.04
2017-03-29T05:21:32.167Z,964.04
2017-03-29T05:22:33.269Z,964.04
2017-03-29T05:23:32.841Z,964.01
2017-03-29T05:24:34.323Z,964.06
2017-03-29T05:25:34.515Z,964.04
2017-03-29T05:26:27.431Z,964.04
2017-03-29T05:27:32.552Z,964.06
2017-03-29T05:28:27.773Z,964.04
2017-03-29T05:29:30.870Z,964.08
2017-03-29T05:30:33.253Z,964.13
2017-03-29T05:31:32.697Z,964.14
2017-03-29T05:32:27.774Z,964.13
2017-03-29T05:33:28.112Z,964.15
2017-03-29T05:34:27.274Z,964.18
2017-03-29T05:35:32.903Z,964.18
2017-03-29T05:36:27.953Z,964.15
2017-03-29T05:37:32.753Z,964.16
2017-03-29T05:38:32.867Z,964.15
2017-03-29T05:39:32.514Z,964.14
2017-03-29T05:40:32.623Z,964.13
2017-03-29T05:41:32.419Z,964.14
2017-03-29T05:42:27.280Z,964.12
2017-03-29T05:43:32.860Z,964.15
2017-03-29T05:44:31.711Z,964.11
2017-03-29T05:45:33.539Z,964.15
2017-03-29T05:46:32.351Z,964.15
2017-03-29T05:47:32.410Z,964.21
2017-03-29T05:48:32.541Z,964.20
2017-03-29T05:49:32.350Z,964.19
2017-03-29T05:50:32.291Z,964.22
2017-03-29T05:51:32.203Z,964.20
2017-03-29T05:52:32.134Z,964.22
2017-03-29T05:53:33.284Z,964.27
2017-03-29T05:57:29.106Z,964.30
2017-03-29T05:58:33.281Z,964.25
2017-03-29T05:59:31.192Z,964.30
2017-03-29T06:00:32.059Z,964.29
2017-03-29T06:01:33.105Z,964.32
2017-03-29T06:02:32.015Z,964.32
2017-03-29T06:03:33.284Z,964.33
2017-03-29T06:04:32.256Z,964.35
2017-03-29T06:05:27.254Z,964.35
2017-03-29T06:06:21.996Z,964.34
2017-03-29T06:07:10.735Z,964.34
2017-03-29T06:08:32.724Z,964.33
2017-03-29T06:09:32.814Z,964.36
2017-03-29T06:10:27.123Z,964.35
2017-03-29T06:11:32.414Z,964.34
2017-03-29T06:12:32.284Z,964.30
2017-03-29T06:13:32.061Z,964.36
2017-03-29T06:14:31.280Z,964.34
2017-03-29T06:15:31.906Z,964.38
2017-03-29T06:16:33.774Z,964.38
2017-03-29T06:17:33.535Z,964.41
2017-03-29T06:18:32.382Z,964.40
2017-03-29T06:19:27.292Z,964.38
2017-03-29T06:20:28.553Z,964.36
2017-03-29T06:21:46.777Z,964.40
2017-03-29T06:22:33.086Z,964.36
2017-03-29T06:23:47.738Z,964.41
2017-03-29T06:24:32.654Z,964.35
2017-03-29T06:25:32.261Z,964.37
2017-03-29T06:26:32.266Z,964.37
2017-03-29T06:27:32.267Z,964.40
2017-03-29T06:28:27.276Z,964.41
2017-03-29T06:29:31.133Z,964.45
2017-03-29T06:30:32.544Z,964.40
2017-03-29T06:31:32.401Z,964.46
2017-03-29T06:32:32.504Z,964.41
2017-03-29T06:33:32.618Z,964.38
2017-03-29T06:34:32.739Z,964.44
2017-03-29T06:35:32.581Z,964.42
2017-03-29T06:36:32.431Z,964.42
2017-03-29T06:37:32.802Z,964.46
2017-03-29T06:38:33.085Z,964.48
2017-03-29T06:39:31.910Z,964.44
2017-03-29T06:40:32.296Z,964.43
2017-03-29T06:41:32.291Z,964.46
2017-03-29T06:42:32.675Z,964.44
2017-03-29T06:43:32.472Z,964.43
2017-03-29T06:44:31.130Z,964.46
2017-03-29T06:45:33.016Z,964.49
2017-03-29T06:46:33.126Z,964.46
2017-03-29T06:47:32.393Z,964.54
2017-03-29T06:48:27.612Z,964.53
2017-03-29T06:49:32.916Z,964.53
2017-03-29T06:50:27.774Z,964.56
2017-03-29T06:51:33.322Z,964.56
2017-03-29T06:52:32.754Z,964.61
2017-03-29T06:53:32.825Z,964.56
2017-03-29T06:54:30.421Z,964.60
2017-03-29T06:55:28.338Z,964.66
2017-03-29T06:56:32.334Z,964.60
2017-03-29T06:57:32.436Z,964.68
2017-03-29T06:58:33.005Z,964.65
2017-03-29T06:59:31.772Z,964.67
2017-03-29T07:00:33.353Z,964.64
2017-03-29T07:01:32.351Z,964.64
2017-03-29T07:02:32.459Z,964.69
2017-03-29T07:03:32.175Z,964.71
2017-03-29T07:04:32.296Z,964.69
2017-03-29T07:05:32.496Z,964.72
2017-03-29T07:06:27.483Z,964.68
2017-03-29T07:07:33.301Z,964.66
2017-03-29T07:08:32.194Z,964.64
2017-03-29T07:09:32.355Z,964.63
2017-03-29T07:10:32.242Z,964.66
2017-03-29T07:11:30.763Z,964.65
2017-03-29T07:12:33.359Z,964.72
2017-03-29T07:13:32.364Z,964.68
2017-03-29T07:14:31.212Z,964.72
2017-03-29T07:15:32.202Z,964.70
2017-03-29T07:16:32.124Z,964.69
2017-03-29T07:17:33.252Z,964.67
2017-03-29T07:18:32.313Z,964.75
2017-03-29T07:19:32.149Z,964.69
2017-03-29T07:20:33.364Z,964.70
2017-03-29T07:21:32.292Z,964.69
2017-03-29T07:22:32.062Z,964.75
2017-03-29T07:23:32.815Z,964.70
2017-03-29T07:24:30.924Z,964.68
2017-03-29T07:25:32.784Z,964.71
2017-03-29T07:26:32.883Z,964.68
2017-03-29T07:27:28.363Z,964.66
2017-03-29T07:29:31.113Z,964.68
2017-03-29T07:30:33.111Z,964.68
2017-03-29T07:31:32.852Z,964.71
2017-03-29T07:32:32.428Z,964.66
2017-03-29T07:33:32.870Z,964.67
2017-03-29T07:34:28.189Z,964.69
2017-03-29T07:35:33.292Z,964.74
2017-03-29T07:36:32.073Z,964.72
2017-03-29T07:37:33.003Z,964.69
2017-03-29T07:38:33.095Z,964.72
2017-03-29T07:39:31.391Z,964.68
2017-03-29T07:40:32.282Z,964.68
2017-03-29T07:41:32.392Z,964.66
2017-03-29T07:42:32.491Z,964.71
2017-03-29T07:43:32.292Z,964.72
2017-03-29T07:44:31.776Z,964.68
2017-03-29T07:45:32.590Z,964.72
2017-03-29T07:46:32.600Z,964.70
2017-03-29T07:47:32.471Z,964.75
2017-03-29T07:48:32.560Z,964.75
2017-03-29T07:49:32.660Z,964.78
2017-03-29T07:50:32.469Z,964.77
2017-03-29T07:51:33.191Z,964.78
2017-03-29T07:52:31.905Z,964.78
2017-03-29T07:53:33.196Z,964.76
2017-03-29T07:54:31.052Z,964.78
2017-03-29T07:55:32.939Z,964.79
2017-03-29T07:56:32.843Z,964.81
2017-03-29T07:57:27.763Z,964.82
2017-03-29T07:58:32.207Z,964.84
2017-03-29T07:59:31.774Z,964.79
2017-03-29T08:00:32.679Z,964.83
2017-03-29T08:01:31.913Z,964.80
2017-03-29T08:02:32.981Z,964.80
2017-03-29T08:03:33.150Z,964.82
2017-03-29T08:04:32.912Z,964.79
2017-03-29T08:05:38.097Z,964.78
2017-03-29T08:06:33.831Z,964.80
2017-03-29T08:07:33.533Z,964.77
2017-03-29T08:08:32.172Z,964.78
2017-03-29T08:09:32.171Z,964.76
2017-03-29T08:10:32.032Z,964.80
2017-03-29T08:11:32.409Z,964.80
2017-03-29T08:12:34.921Z,964.77
2017-03-29T08:20:37.745Z,964.84
2017-03-29T08:21:37.704Z,964.82
2017-03-29T08:22:33.170Z,964.78
2017-03-29T08:23:32.852Z,964.78
2017-03-29T08:24:35.837Z,964.84
2017-03-29T08:25:33.209Z,964.82
2017-03-29T08:26:33.214Z,964.76
2017-03-29T08:28:34.224Z,964.81
2017-03-29T08:29:46.773Z,964.83
2017-03-29T08:30:33.163Z,964.79
2017-03-29T08:31:27.510Z,964.77
2017-03-29T08:32:32.652Z,964.82
2017-03-29T08:33:32.695Z,964.76
2017-03-29T08:34:32.339Z,964.75
2017-03-29T08:35:44.443Z,964.78
2017-03-29T08:36:32.231Z,964.71
2017-03-29T08:37:33.802Z,964.73
2017-03-29T08:38:33.230Z,964.76
2017-03-29T08:39:32.621Z,964.74
2017-03-29T08:40:33.590Z,964.73
2017-03-29T08:41:32.240Z,964.73
2017-03-29T08:42:32.241Z,964.79
2017-03-29T08:43:32.865Z,964.80
2017-03-29T08:44:31.900Z,964.79
2017-03-29T08:45:32.715Z,964.84
2017-03-29T08:46:27.772Z,964.78
2017-03-29T08:47:27.780Z,964.74
2017-03-29T08:48:37.832Z,964.72
2017-03-29T08:49:28.089Z,964.71
2017-03-29T08:50:33.252Z,964.70
2017-03-29T08:51:32.708Z,964.70
2017-03-29T08:52:27.695Z,964.67
2017-03-29T08:53:32.228Z,964.66
2017-03-29T08:54:30.769Z,964.74
2017-03-29T08:55:27.870Z,964.73
2017-03-29T08:56:32.506Z,964.71
2017-03-29T08:57:32.367Z,964.76
2017-03-29T08:58:32.611Z,964.73
2017-03-29T08:59:32.393Z,964.74
2017-03-29T09:00:32.260Z,964.72
2017-03-29T09:01:31.980Z,964.77
2017-03-29T09:02:37.690Z,964.71
2017-03-29T09:03:33.113Z,964.71
2017-03-29T09:04:38.952Z,964.72
2017-03-29T09:05:33.094Z,964.70
2017-03-29T09:06:33.205Z,964.75
2017-03-29T09:07:32.235Z,964.75
2017-03-29T09:08:32.339Z,964.74
2017-03-29T09:09:27.265Z,964.76
2017-03-29T09:10:33.110Z,964.73
2017-03-29T09:11:33.107Z,964.75
2017-03-29T09:12:32.387Z,964.76
2017-03-29T09:13:32.208Z,964.74
2017-03-29T09:14:32.148Z,964.73
2017-03-29T09:15:33.298Z,964.75
2017-03-29T09:16:27.240Z,964.73
2017-03-29T09:17:33.041Z,964.77
2017-03-29T09:18:32.892Z,964.76
2017-03-29T09:19:26.690Z,964.79
2017-03-29T09:20:32.201Z,964.77
2017-03-29T09:21:32.290Z,964.79
2017-03-29T09:22:32.289Z,964.80
2017-03-29T09:23:32.282Z,964.74
2017-03-29T09:24:26.096Z,964.81
2017-03-29T09:26:33.001Z,964.80
2017-03-29T09:27:33.507Z,964.73
2017-03-29T09:28:23.103Z,964.74
2017-03-29T09:29:35.075Z,964.72
2017-03-29T09:30:32.858Z,964.67
2017-03-29T09:31:37.850Z,964.70
2017-03-29T09:32:37.959Z,964.63
2017-03-29T09:33:33.289Z,964.60
2017-03-29T09:34:33.288Z,964.67
2017-03-29T09:35:32.310Z,964.65
2017-03-29T09:36:32.316Z,964.64
2017-03-29T09:37:37.841Z,964.65
2017-03-29T09:38:32.288Z,964.64
2017-03-29T09:39:22.829Z,964.64
2017-03-29T09:42:27.771Z,964.71
2017-03-29T09:43:32.842Z,964.66
2017-03-29T09:44:32.922Z,964.64
2017-03-29T09:46:27.768Z,964.69
2017-03-29T09:47:28.251Z,964.68
2017-03-29T09:48:28.781Z,964.60
2017-03-29T09:49:32.327Z,964.65
2017-03-29T09:50:27.402Z,964.65
2017-03-29T09:51:32.807Z,964.67
2017-03-29T09:52:40.527Z,964.64
2017-03-29T09:53:32.198Z,964.60
2017-03-29T09:54:30.762Z,964.58
2017-03-29T09:58:32.677Z,964.61
2017-03-29T09:59:32.637Z,964.58
2017-03-29T10:00:32.741Z,964.62
2017-03-29T10:01:34.108Z,964.61
2017-03-29T10:02:33.299Z,964.61
2017-03-29T10:03:46.777Z,964.59
2017-03-29T10:04:34.416Z,964.59
2017-03-29T10:05:33.353Z,964.58
2017-03-29T10:06:27.422Z,964.52
2017-03-29T10:07:32.713Z,964.50
2017-03-29T10:08:32.897Z,964.49
2017-03-29T10:09:29.177Z,964.49
2017-03-29T10:11:40.072Z,964.44
2017-03-29T10:12:32.896Z,964.43
2017-03-29T10:14:33.359Z,964.39
2017-03-29T10:16:28.488Z,964.44
2017-03-29T10:17:32.206Z,964.44
2017-03-29T10:18:32.257Z,964.45
2017-03-29T10:19:32.169Z,964.41
2017-03-29T10:20:27.537Z,964.45
2017-03-29T10:21:32.423Z,964.39
2017-03-29T10:22:32.373Z,964.44
2017-03-29T10:23:27.371Z,964.42
2017-03-29T10:24:26.180Z,964.43
2017-03-29T10:25:30.849Z,964.43
2017-03-29T10:26:33.191Z,964.42
2017-03-29T10:27:32.171Z,964.42
2017-03-29T10:28:32.394Z,964.38
2017-03-29T10:29:32.370Z,964.35
2017-03-29T10:30:27.150Z,964.32
2017-03-29T10:31:33.372Z,964.35
2017-03-29T10:32:32.441Z,964.31
2017-03-29T10:33:32.371Z,964.29
2017-03-29T10:34:32.269Z,964.30
2017-03-29T10:35:31.860Z,964.27
2017-03-29T10:36:33.357Z,964.28
2017-03-29T10:37:32.299Z,964.24
2017-03-29T10:38:32.231Z,964.21
2017-03-29T10:40:33.843Z,964.22
2017-03-29T10:41:27.901Z,964.18
2017-03-29T10:42:09.974Z,964.18
2017-03-29T10:43:33.281Z,964.16
2017-03-29T10:45:34.780Z,964.18
2017-03-29T10:46:33.040Z,964.12
2017-03-29T10:47:33.199Z,964.12
2017-03-29T10:51:32.844Z,964.07
2017-03-29T10:53:34.204Z,964.05
2017-03-29T10:54:30.395Z,964.07
2017-03-29T10:55:32.375Z,964.06
2017-03-29T11:01:32.753Z,964.05
2017-03-29T11:02:33.332Z,964.00
2017-03-29T11:03:27.770Z,964.02
2017-03-29T11:04:32.501Z,964.00
2017-03-29T11:05:32.113Z,963.98
2017-03-29T11:06:33.280Z,964.00
2017-03-29T11:07:32.394Z,963.94
2017-03-29T11:08:32.399Z,964.00
2017-03-29T11:09:27.508Z,963.93
2017-03-29T11:10:32.774Z,963.95
2017-03-29T11:11:32.929Z,963.93
2017-03-29T11:12:33.040Z,963.93
2017-03-29T11:13:33.148Z,963.93
2017-03-29T11:14:32.543Z,963.91
2017-03-29T11:15:31.155Z,963.91
2017-03-29T11:16:48.194Z,963.91
2017-03-29T11:17:56.323Z,963.87
2017-03-29T11:20:03.115Z,963.91
2017-03-29T11:20:24.269Z,963.91
2017-03-29T11:25:52.474Z,963.77
2017-03-29T11:25:58.134Z,963.78
2017-03-29T11:26:19.638Z,963.73
2017-03-29T11:27:32.561Z,963.77
2017-03-29T11:28:41.927Z,963.77
2017-03-29T11:29:23.188Z,963.75
2017-03-29T11:30:18.593Z,963.76
2017-03-29T11:31:27.362Z,963.69
2017-03-29T11:32:17.827Z,963.68
2017-03-29T11:33:18.536Z,963.68
2017-03-29T11:35:23.064Z,963.65
2017-03-29T11:36:19.433Z,963.70
2017-03-29T11:37:25.530Z,963.65
2017-03-29T11:38:19.218Z,963.66
2017-03-29T11:39:27.832Z,963.66
2017-03-29T11:40:25.836Z,963.71
2017-03-29T11:41:19.327Z,963.70
2017-03-29T11:42:15.533Z,963.65
2017-03-29T11:43:17.452Z,963.66
2017-03-29T11:44:26.254Z,963.65
2017-03-29T11:45:19.304Z,963.68
2017-03-29T11:46:20.926Z,963.63
2017-03-29T11:47:23.048Z,963.65
2017-03-29T11:48:22.728Z,963.69
2017-03-29T11:49:24.253Z,963.64
2017-03-29T11:50:19.026Z,963.60
2017-03-29T11:51:27.864Z,963.56
2017-03-29T11:52:26.003Z,963.60
2017-03-29T11:53:22.867Z,963.58
2017-03-29T11:54:21.497Z,963.54
2017-03-29T11:55:18.844Z,963.60
2017-03-29T11:56:26.163Z,963.51
2017-03-29T11:57:19.118Z,963.48
2017-03-29T11:58:23.216Z,963.52
2017-03-29T11:59:26.593Z,963.54
2017-03-29T12:00:24.876Z,963.49
2017-03-29T12:01:22.780Z,963.49
2017-03-29T12:02:23.918Z,963.51
2017-03-29T12:03:23.127Z,963.53
2017-03-29T12:04:27.431Z,963.50
2017-03-29T12:05:19.238Z,963.50
2017-03-29T12:06:26.176Z,963.44
2017-03-29T12:07:23.280Z,963.50
2017-03-29T12:08:22.397Z,963.50
2017-03-29T12:09:20.116Z,963.48
2017-03-29T12:10:25.889Z,963.50
2017-03-29T12:11:19.681Z,963.50
2017-03-29T12:12:22.837Z,963.45
2017-03-29T12:13:19.336Z,963.42
2017-03-29T12:14:22.328Z,963.42
2017-03-29T12:15:22.551Z,963.44
2017-03-29T12:16:28.094Z,963.35
2017-03-29T12:17:26.700Z,963.30
2017-03-29T12:18:22.352Z,963.45
2017-03-29T12:19:19.322Z,963.43
2017-03-29T12:20:27.278Z,963.38
2017-03-29T12:21:22.318Z,963.39
2017-03-29T12:22:23.911Z,963.34
2017-03-29T12:23:32.649Z,963.33
2017-03-29T12:24:32.740Z,963.31
2017-03-29T12:25:23.878Z,963.30
2017-03-29T12:26:23.253Z,963.32
2017-03-29T12:27:21.516Z,963.26
2017-03-29T12:28:21.864Z,963.35
2017-03-29T12:29:21.516Z,963.30
2017-03-29T12:30:32.346Z,963.25
2017-03-29T12:31:27.177Z,963.29
2017-03-29T12:32:22.706Z,963.29
2017-03-29T12:33:21.321Z,963.25
2017-03-29T12:34:19.665Z,963.25
2017-03-29T12:35:21.094Z,963.24
2017-03-29T12:36:27.903Z,963.19
2017-03-29T12:37:22.281Z,963.20
2017-03-29T12:38:28.338Z,963.18
2017-03-29T12:39:22.815Z,963.20
2017-03-29T12:40:22.421Z,963.18
2017-03-29T12:41:22.981Z,963.17
2017-03-29T12:42:21.360Z,963.20
2017-03-29T12:43:20.158Z,963.16
2017-03-29T12:44:22.724Z,963.11
2017-03-29T12:45:20.616Z,963.13
2017-03-29T12:46:27.418Z,963.13
2017-03-29T12:47:20.978Z,963.11
2017-03-29T12:48:15.601Z,963.11
2017-03-29T12:49:22.369Z,963.16
2017-03-29T12:50:22.392Z,963.12
2017-03-29T12:51:27.606Z,963.11
2017-03-29T12:52:20.976Z,963.08
2017-03-29T12:53:18.626Z,963.08
2017-03-29T12:54:18.886Z,963.13
2017-03-29T12:55:21.360Z,963.06
2017-03-29T12:56:28.027Z,963.07
2017-03-29T12:57:23.117Z,963.02
2017-03-29T12:58:24.934Z,963.04
2017-03-29T12:59:28.036Z,963.01
2017-03-29T13:00:20.004Z,962.98
2017-03-29T13:01:27.696Z,963.02
2017-03-29T13:02:27.163Z,963.00
2017-03-29T13:03:27.292Z,963.00
2017-03-29T13:04:27.234Z,963.03
2017-03-29T13:05:22.918Z,963.00
2017-03-29T13:06:21.434Z,963.05
2017-03-29T13:07:22.372Z,963.00
2017-03-29T13:08:32.262Z,963.05
2017-03-29T13:09:27.751Z,962.95
2017-03-29T13:10:22.848Z,962.98